sensor_id;sensor_type;location;lat;lon;timestamp;pressure;altitude;pressure_sealevel;temperature;humidity
4398;BME280;2213;49.720;7.296;2023-05-12T00:02:01;97900.88;;;12.54;100.00
4398;BME280;2213;49.720;7.296;2023-05-12T00:04:30;97891.38;;;12.53;100.00
4398;BME280;2213;49.720;7.296;2023-05-12T00:06:59;97893.22;;;12.52;100.00
4398;BME280;2213;49.720;7.296;2023-05-12T00:09:27;97893.22;;;12.52;100.00
4398;BME280;2213;49.720;7.296;2023-05-12T00:11:57;97888.00;;;12.52;100.00
4398;BME280;2213;49.720;7.296;2023-05-12T00:14:25;97894.22;;;12.51;100.00
4398;BME280;2213;49.720;7.296;2023-05-12T00:16:54;97889.00;;;12.51;100.00
4398;BME280;2213;49.720;7.296;2023-05-12T00:19:24;97892.19;;;12.53;100.00
4398;BME280;2213;49.720;7.296;2023-05-12T00:21:53;97888.56;;;12.54;100.00
4398;BME280;2213;49.720;7.296;2023-05-12T00:24:22;97891.19;;;12.54;100.00
4398;BME280;2213;49.720;7.296;2023-05-12T00:26:51;97887.19;;;12.52;100.00
4398;BME280;2213;49.720;7.296;2023-05-12T00:29:20;97884.75;;;12.50;100.00
4398;BME280;2213;49.720;7.296;2023-05-12T00:31:49;97890.78;;;12.51;100.00
4398;BME280;2213;49.720;7.296;2023-05-12T00:34:18;97884.75;;;12.50;100.00
4398;BME280;2213;49.720;7.296;2023-05-12T00:36:48;97881.13;;;12.51;100.00
4398;BME280;2213;49.720;7.296;2023-05-12T00:39:16;97883.94;;;12.50;100.00
4398;BME280;2213;49.720;7.296;2023-05-12T00:41:44;97880.53;;;12.49;100.00
4398;BME280;2213;49.720;7.296;2023-05-12T00:44:13;97877.50;;;12.46;100.00
4398;BME280;2213;49.720;7.296;2023-05-12T00:46:45;97871.44;;;12.45;100.00
4398;BME280;2213;49.720;7.296;2023-05-12T00:49:14;97880.72;;;12.48;100.00
4398;BME280;2213;49.720;7.296;2023-05-12T00:51:46;97865.78;;;12.48;100.00
4398;BME280;2213;49.720;7.296;2023-05-12T00:54:16;97869.00;;;12.50;100.00
4398;BME280;2213;49.720;7.296;2023-05-12T00:56:45;97868.19;;;12.50;100.00
4398;BME280;2213;49.720;7.296;2023-05-12T00:59:14;97865.56;;;12.50;100.00
4398;BME280;2213;49.720;7.296;2023-05-12T01:01:44;97860.97;;;12.45;100.00
4398;BME280;2213;49.720;7.296;2023-05-12T01:04:13;97863.59;;;12.45;100.00
4398;BME280;2213;49.720;7.296;2023-05-12T01:06:54;97854.09;;;12.44;100.00
4398;BME280;2213;49.720;7.296;2023-05-12T01:09:26;97865.59;;;12.43;100.00
4398;BME280;2213;49.720;7.296;2023-05-12T01:11:54;97862.97;;;12.43;100.00
4398;BME280;2213;49.720;7.296;2023-05-12T01:14:23;97857.31;;;12.40;100.00
4398;BME280;2213;49.720;7.296;2023-05-12T01:16:55;97853.88;;;12.39;100.00
4398;BME280;2213;49.720;7.296;2023-05-12T01:19:39;97855.72;;;12.39;100.00
4398;BME280;2213;49.720;7.296;2023-05-12T01:22:10;97850.66;;;12.37;100.00
4398;BME280;2213;49.720;7.296;2023-05-12T01:24:49;97852.47;;;12.37;100.00
4398;BME280;2213;49.720;7.296;2023-05-12T01:27:21;97855.31;;;12.35;100.00
4398;BME280;2213;49.720;7.296;2023-05-12T01:29:53;97855.31;;;12.35;100.00
4398;BME280;2213;49.720;7.296;2023-05-12T01:32:24;97857.31;;;12.33;100.00
4398;BME280;2213;49.720;7.296;2023-05-12T01:34:53;97857.72;;;12.30;100.00
4398;BME280;2213;49.720;7.296;2023-05-12T01:37:22;97854.50;;;12.28;100.00
4398;BME280;2213;49.720;7.296;2023-05-12T01:39:53;97861.75;;;12.26;100.00
4398;BME280;2213;49.720;7.296;2023-05-12T01:42:24;97854.69;;;12.27;100.00
4398;BME280;2213;49.720;7.296;2023-05-12T01:44:53;97854.50;;;12.28;100.00
4398;BME280;2213;49.720;7.296;2023-05-12T01:47:21;97864.19;;;12.28;100.00
4398;BME280;2213;49.720;7.296;2023-05-12T01:49:50;97861.34;;;12.29;100.00
4398;BME280;2213;49.720;7.296;2023-05-12T01:52:20;97862.16;;;12.30;100.00
4398;BME280;2213;49.720;7.296;2023-05-12T01:54:49;97857.13;;;12.28;100.00
4398;BME280;2213;49.720;7.296;2023-05-12T01:57:18;97852.09;;;12.27;100.00
4398;BME280;2213;49.720;7.296;2023-05-12T01:59:48;97858.31;;;12.26;100.00
4398;BME280;2213;49.720;7.296;2023-05-12T02:02:17;97855.50;;;12.27;100.00
4398;BME280;2213;49.720;7.296;2023-05-12T02:04:46;97860.75;;;12.27;100.00
4398;BME280;2213;49.720;7.296;2023-05-12T02:07:15;97853.91;;;12.26;100.00
4398;BME280;2213;49.720;7.296;2023-05-12T02:09:44;97857.31;;;12.27;100.00
4398;BME280;2213;49.720;7.296;2023-05-12T02:12:13;97866.19;;;12.26;100.00
4398;BME280;2213;49.720;7.296;2023-05-12T02:14:42;97858.53;;;12.24;100.00
4398;BME280;2213;49.720;7.296;2023-05-12T02:17:13;97850.69;;;12.24;100.00
4398;BME280;2213;49.720;7.296;2023-05-12T02:19:43;97858.53;;;12.24;100.00
4398;BME280;2213;49.720;7.296;2023-05-12T02:22:12;97856.91;;;12.23;100.00
4398;BME280;2213;49.720;7.296;2023-05-12T02:24:41;97859.53;;;12.23;100.00
4398;BME280;2213;49.720;7.296;2023-05-12T02:27:10;97856.91;;;12.23;100.00
4398;BME280;2213;49.720;7.296;2023-05-12T02:29:39;97858.53;;;12.24;100.00
4398;BME280;2213;49.720;7.296;2023-05-12T02:32:08;97862.97;;;12.24;100.00
4398;BME280;2213;49.720;7.296;2023-05-12T02:34:39;97854.31;;;12.23;100.00
4398;BME280;2213;49.720;7.296;2023-05-12T02:37:08;97856.34;;;12.21;100.00
4398;BME280;2213;49.720;7.296;2023-05-12T02:39:36;97858.13;;;12.21;100.00
4398;BME280;2213;49.720;7.296;2023-05-12T02:42:08;97853.91;;;12.20;100.00
4398;BME280;2213;49.720;7.296;2023-05-12T02:44:37;97862.38;;;12.22;100.00
4398;BME280;2213;49.720;7.296;2023-05-12T02:47:06;97856.34;;;12.21;100.00
4398;BME280;2213;49.720;7.296;2023-05-12T02:49:35;97857.91;;;12.22;100.00
4398;BME280;2213;49.720;7.296;2023-05-12T02:52:06;97856.34;;;12.21;100.00
4398;BME280;2213;49.720;7.296;2023-05-12T02:54:34;97853.72;;;12.21;100.00
4398;BME280;2213;49.720;7.296;2023-05-12T02:57:04;97853.72;;;12.21;100.00
4398;BME280;2213;49.720;7.296;2023-05-12T02:59:33;97848.47;;;12.21;100.00
4398;BME280;2213;49.720;7.296;2023-05-12T03:02:02;97851.91;;;12.22;100.00
4398;BME280;2213;49.720;7.296;2023-05-12T03:04:32;97846.03;;;12.20;100.00
4398;BME280;2213;49.720;7.296;2023-05-12T03:07:01;97845.63;;;12.16;100.00
4398;BME280;2213;49.720;7.296;2023-05-12T03:09:30;97843.63;;;12.18;100.00
4398;BME280;2213;49.720;7.296;2023-05-12T03:11:59;97841.19;;;12.17;100.00
4398;BME280;2213;49.720;7.296;2023-05-12T03:14:28;97842.19;;;12.09;100.00
4398;BME280;2213;49.720;7.296;2023-05-12T03:16:57;97847.44;;;12.09;100.00
4398;BME280;2213;49.720;7.296;2023-05-12T03:19:26;97848.25;;;12.09;100.00
4398;BME280;2213;49.720;7.296;2023-05-12T03:21:55;97843.19;;;12.08;100.00
4398;BME280;2213;49.720;7.296;2023-05-12T03:24:25;97855.53;;;12.07;100.00
4398;BME280;2213;49.720;7.296;2023-05-12T03:26:55;97847.44;;;12.09;100.00
4398;BME280;2213;49.720;7.296;2023-05-12T03:29:24;97849.06;;;12.10;100.00
4398;BME280;2213;49.720;7.296;2023-05-12T03:31:54;97844.41;;;12.12;100.00
4398;BME280;2213;49.720;7.296;2023-05-12T03:34:22;97846.84;;;12.14;100.00
4398;BME280;2213;49.720;7.296;2023-05-12T03:36:52;97842.59;;;12.13;100.00
4398;BME280;2213;49.720;7.296;2023-05-12T03:39:20;97848.44;;;12.08;100.00
4398;BME280;2213;49.720;7.296;2023-05-12T03:41:51;97844.81;;;12.09;100.00
4398;BME280;2213;49.720;7.296;2023-05-12T03:44:20;97846.22;;;12.11;100.00
4398;BME280;2213;49.720;7.296;2023-05-12T03:46:49;97844.63;;;12.10;100.00
4398;BME280;2213;49.720;7.296;2023-05-12T03:49:19;97848.06;;;12.11;100.00
4398;BME280;2213;49.720;7.296;2023-05-12T03:51:49;97847.25;;;12.10;100.00
4398;BME280;2213;49.720;7.296;2023-05-12T03:54:18;97847.84;;;12.13;100.00
4398;BME280;2213;49.720;7.296;2023-05-12T03:56:47;97845.22;;;12.13;100.00
4398;BME280;2213;49.720;7.296;2023-05-12T03:59:16;97842.00;;;12.10;100.00
4398;BME280;2213;49.720;7.296;2023-05-12T04:01:47;97840.78;;;12.13;100.00
4398;BME280;2213;49.720;7.296;2023-05-12T04:04:16;97835.56;;;12.13;100.00
4398;BME280;2213;49.720;7.296;2023-05-12T04:06:45;97838.75;;;12.15;100.00
4398;BME280;2213;49.720;7.296;2023-05-12T04:09:14;97837.16;;;12.14;100.00
4398;BME280;2213;49.720;7.296;2023-05-12T04:11:44;97844.00;;;12.15;100.00
4398;BME280;2213;49.720;7.296;2023-05-12T04:14:12;97844.00;;;12.15;100.00
4398;BME280;2213;49.720;7.296;2023-05-12T04:16:41;97834.56;;;12.14;100.00
4398;BME280;2213;49.720;7.296;2023-05-12T04:19:12;97841.59;;;12.14;100.00
4398;BME280;2213;49.720;7.296;2023-05-12T04:21:41;97848.47;;;12.15;100.00
4398;BME280;2213;49.720;7.296;2023-05-12T04:24:10;97847.66;;;12.14;100.00
4398;BME280;2213;49.720;7.296;2023-05-12T04:26:38;97845.63;;;12.16;100.00
4398;BME280;2213;49.720;7.296;2023-05-12T04:29:07;97845.63;;;12.16;100.00
4398;BME280;2213;49.720;7.296;2023-05-12T04:31:36;97847.25;;;12.17;100.00
4398;BME280;2213;49.720;7.296;2023-05-12T04:34:05;97850.69;;;12.18;100.00
4398;BME280;2213;49.720;7.296;2023-05-12T04:36:35;97847.25;;;12.17;100.00
4398;BME280;2213;49.720;7.296;2023-05-12T04:39:04;97853.31;;;12.18;100.00
4398;BME280;2213;49.720;7.296;2023-05-12T04:41:33;97854.72;;;12.20;100.00
4398;BME280;2213;49.720;7.296;2023-05-12T04:44:02;97851.91;;;12.22;100.00
4398;BME280;2213;49.720;7.296;2023-05-12T04:46:31;97852.50;;;12.24;100.00
4398;BME280;2213;49.720;7.296;2023-05-12T04:48:59;97854.09;;;12.25;100.00
4398;BME280;2213;49.720;7.296;2023-05-12T04:51:29;97857.50;;;12.25;100.00
4398;BME280;2213;49.720;7.296;2023-05-12T04:53:59;97862.56;;;12.27;100.00
4398;BME280;2213;49.720;7.296;2023-05-12T04:56:29;97859.94;;;12.27;100.00
4398;BME280;2213;49.720;7.296;2023-05-12T04:58:57;97863.97;;;12.29;100.00
4398;BME280;2213;49.720;7.296;2023-05-12T05:01:26;97858.72;;;12.29;100.00
4398;BME280;2213;49.720;7.296;2023-05-12T05:03:55;97866.19;;;12.32;100.00
4398;BME280;2213;49.720;7.296;2023-05-12T05:06:23;97866.19;;;12.32;100.00
4398;BME280;2213;49.720;7.296;2023-05-12T05:08:53;97867.00;;;12.33;100.00
4398;BME280;2213;49.720;7.296;2023-05-12T05:11:23;97868.44;;;12.35;100.00
4398;BME280;2213;49.720;7.296;2023-05-12T05:13:52;97871.44;;;12.39;100.00
4398;BME280;2213;49.720;7.296;2023-05-12T05:16:21;97870.41;;;12.40;100.00
4398;BME280;2213;49.720;7.296;2023-05-12T05:18:50;97875.66;;;12.40;100.00
4398;BME280;2213;49.720;7.296;2023-05-12T05:21:19;97884.34;;;12.40;100.00
4398;BME280;2213;49.720;7.296;2023-05-12T05:23:48;97879.31;;;12.39;100.00
4398;BME280;2213;49.720;7.296;2023-05-12T05:26:16;97881.94;;;12.39;100.00
4398;BME280;2213;49.720;7.296;2023-05-12T05:28:47;97873.84;;;12.40;100.00
4398;BME280;2213;49.720;7.296;2023-05-12T05:31:16;97880.91;;;12.40;100.00
4398;BME280;2213;49.720;7.296;2023-05-12T05:33:45;97883.34;;;12.41;100.00
4398;BME280;2213;49.720;7.296;2023-05-12T05:36:13;97888.59;;;12.41;100.00
4398;BME280;2213;49.720;7.296;2023-05-12T05:38:42;97888.59;;;12.41;100.00
4398;BME280;2213;49.720;7.296;2023-05-12T05:41:11;97889.41;;;12.42;100.00
4398;BME280;2213;49.720;7.296;2023-05-12T05:43:40;97891.81;;;12.43;100.00
4398;BME280;2213;49.720;7.296;2023-05-12T05:46:12;97895.25;;;12.44;100.00
4398;BME280;2213;49.720;7.296;2023-05-12T05:48:40;97890.00;;;12.44;100.00
4398;BME280;2213;49.720;7.296;2023-05-12T05:51:09;97895.66;;;12.47;100.00
4398;BME280;2213;49.720;7.296;2023-05-12T05:53:38;97893.84;;;12.48;100.00
4398;BME280;2213;49.720;7.296;2023-05-12T05:56:07;97900.47;;;12.50;100.00
4398;BME280;2213;49.720;7.296;2023-05-12T05:58:36;97902.09;;;12.51;100.00
4398;BME280;2213;49.720;7.296;2023-05-12T06:01:04;97898.47;;;12.52;100.00
4398;BME280;2213;49.720;7.296;2023-05-12T06:03:35;97906.53;;;12.51;100.00
4398;BME280;2213;49.720;7.296;2023-05-12T06:06:05;97906.13;;;12.54;100.00
4398;BME280;2213;49.720;7.296;2023-05-12T06:08:33;97908.56;;;12.55;100.00
4398;BME280;2213;49.720;7.296;2023-05-12T06:11:02;97911.19;;;12.55;100.00
4398;BME280;2213;49.720;7.296;2023-05-12T06:13:30;97914.41;;;12.57;100.00
4398;BME280;2213;49.720;7.296;2023-05-12T06:15:59;97918.44;;;12.60;100.00
4398;BME280;2213;49.720;7.296;2023-05-12T06:18:27;97917.25;;;12.63;100.00
4398;BME280;2213;49.720;7.296;2023-05-12T06:20:57;97921.06;;;12.67;100.00
4398;BME280;2213;49.720;7.296;2023-05-12T06:23:26;97924.28;;;12.69;100.00
4398;BME280;2213;49.720;7.296;2023-05-12T06:25:55;97926.50;;;12.72;100.00
4398;BME280;2213;49.720;7.296;2023-05-12T06:28:24;97931.56;;;12.73;100.00
4398;BME280;2213;49.720;7.296;2023-05-12T06:30:53;97927.72;;;12.76;100.00
4398;BME280;2213;49.720;7.296;2023-05-12T06:33:21;97935.97;;;12.79;100.00
4398;BME280;2213;49.720;7.296;2023-05-12T06:35:50;97926.31;;;12.80;100.00
4398;BME280;2213;49.720;7.296;2023-05-12T06:38:20;97932.94;;;12.82;100.00
4398;BME280;2213;49.720;7.296;2023-05-12T06:40:49;97928.50;;;12.83;100.00
4398;BME280;2213;49.720;7.296;2023-05-12T06:43:17;97932.13;;;12.82;100.00
4398;BME280;2213;49.720;7.296;2023-05-12T06:45:46;97929.09;;;12.85;100.00
4398;BME280;2213;49.720;7.296;2023-05-12T06:48:16;97936.78;;;12.86;100.00
4398;BME280;2213;49.720;7.296;2023-05-12T06:50:45;97932.34;;;12.87;100.00
4398;BME280;2213;49.720;7.296;2023-05-12T06:53:13;97936.56;;;12.88;100.00
4398;BME280;2213;49.720;7.296;2023-05-12T06:55:45;97943.25;;;12.90;100.00
4398;BME280;2213;49.720;7.296;2023-05-12T06:58:13;97939.22;;;12.94;100.00
4398;BME280;2213;49.720;7.296;2023-05-12T07:00:43;97946.44;;;12.99;100.00
4398;BME280;2213;49.720;7.296;2023-05-12T07:03:12;97940.59;;;12.97;100.00
4398;BME280;2213;49.720;7.296;2023-05-12T07:05:41;97940.78;;;13.02;100.00
4398;BME280;2213;49.720;7.296;2023-05-12T07:08:09;97945.03;;;13.03;100.00
4398;BME280;2213;49.720;7.296;2023-05-12T07:10:38;97950.91;;;13.05;100.00
4398;BME280;2213;49.720;7.296;2023-05-12T07:13:08;97950.09;;;13.11;100.00
4398;BME280;2213;49.720;7.296;2023-05-12T07:15:37;97946.06;;;13.15;100.00
4398;BME280;2213;49.720;7.296;2023-05-12T07:18:07;97949.09;;;13.19;100.00
4398;BME280;2213;49.720;7.296;2023-05-12T07:20:35;97953.69;;;13.23;100.00
4398;BME280;2213;49.720;7.296;2023-05-12T07:23:04;97951.28;;;13.28;100.00
4398;BME280;2213;49.720;7.296;2023-05-12T07:25:34;97950.84;;;13.31;100.00
4398;BME280;2213;49.720;7.296;2023-05-12T07:28:03;97944.78;;;13.31;100.00
4398;BME280;2213;49.720;7.296;2023-05-12T07:30:34;97949.63;;;13.34;100.00
4398;BME280;2213;49.720;7.296;2023-05-12T07:33:03;97952.66;;;13.37;100.00
4398;BME280;2213;49.720;7.296;2023-05-12T07:35:32;97941.94;;;13.39;100.00
4398;BME280;2213;49.720;7.296;2023-05-12T07:38:01;97948.19;;;13.44;100.00
4398;BME280;2213;49.720;7.296;2023-05-12T07:40:30;97949.97;;;13.50;100.00
4398;BME280;2213;49.720;7.296;2023-05-12T07:42:59;97950.97;;;13.56;100.00
4398;BME280;2213;49.720;7.296;2023-05-12T07:45:29;97955.22;;;13.57;100.00
4398;BME280;2213;49.720;7.296;2023-05-12T07:47:59;97953.19;;;13.59;100.00
4398;BME280;2213;49.720;7.296;2023-05-12T07:50:28;97949.56;;;13.60;100.00
4398;BME280;2213;49.720;7.296;2023-05-12T07:52:58;97956.22;;;13.63;100.00
4398;BME280;2213;49.720;7.296;2023-05-12T07:55:27;97957.59;;;13.65;100.00
4398;BME280;2213;49.720;7.296;2023-05-12T07:57:55;97952.97;;;13.67;100.00
4398;BME280;2213;49.720;7.296;2023-05-12T08:00:24;97955.38;;;13.69;100.00
4398;BME280;2213;49.720;7.296;2023-05-12T08:02:53;97957.00;;;13.70;100.00
4398;BME280;2213;49.720;7.296;2023-05-12T08:05:23;97955.97;;;13.71;100.00
4398;BME280;2213;49.720;7.296;2023-05-12T08:07:51;97957.56;;;13.72;100.00
4398;BME280;2213;49.720;7.296;2023-05-12T08:10:20;97962.41;;;13.75;100.00
4398;BME280;2213;49.720;7.296;2023-05-12T08:12:52;97962.81;;;13.78;100.00
4398;BME280;2213;49.720;7.296;2023-05-12T08:15:22;97963.59;;;13.79;100.00
4398;BME280;2213;49.720;7.296;2023-05-12T08:17:50;97968.44;;;13.82;100.00
4398;BME280;2213;49.720;7.296;2023-05-12T08:20:19;97967.66;;;13.81;100.00
4398;BME280;2213;49.720;7.296;2023-05-12T08:22:49;97967.28;;;13.78;100.00
4398;BME280;2213;49.720;7.296;2023-05-12T08:25:18;97967.28;;;13.78;100.00
4398;BME280;2213;49.720;7.296;2023-05-12T08:27:47;97973.72;;;13.75;100.00
4398;BME280;2213;49.720;7.296;2023-05-12T08:30:16;97968.28;;;13.77;100.00
4398;BME280;2213;49.720;7.296;2023-05-12T08:32:45;97970.91;;;13.77;100.00
4398;BME280;2213;49.720;7.296;2023-05-12T08:35:14;97979.38;;;13.79;100.00
4398;BME280;2213;49.720;7.296;2023-05-12T08:37:43;97973.31;;;13.78;100.00
4398;BME280;2213;49.720;7.296;2023-05-12T08:40:19;97967.66;;;13.75;100.00
4398;BME280;2213;49.720;7.296;2023-05-12T08:42:57;97974.53;;;13.76;100.00
4398;BME280;2213;49.720;7.296;2023-05-12T08:45:31;97981.63;;;13.75;100.00
4398;BME280;2213;49.720;7.296;2023-05-12T08:48:01;97986.06;;;13.75;100.00
4398;BME280;2213;49.720;7.296;2023-05-12T08:50:34;97989.50;;;13.75;100.00
4398;BME280;2213;49.720;7.296;2023-05-12T08:53:06;97990.69;;;13.79;100.00
4398;BME280;2213;49.720;7.296;2023-05-12T08:55:41;97998.41;;;13.81;100.00
4398;BME280;2213;49.720;7.296;2023-05-12T08:58:31;97989.31;;;13.77;100.00
4398;BME280;2213;49.720;7.296;2023-05-12T09:01:10;97987.88;;;13.81;100.00
4398;BME280;2213;49.720;7.296;2023-05-12T09:03:39;97986.66;;;13.83;100.00
4398;BME280;2213;49.720;7.296;2023-05-12T09:06:08;97983.41;;;13.88;100.00
4398;BME280;2213;49.720;7.296;2023-05-12T09:08:40;97986.44;;;13.85;100.00
4398;BME280;2213;49.720;7.296;2023-05-12T09:11:11;97994.13;;;13.86;100.00
4398;BME280;2213;49.720;7.296;2023-05-12T09:13:49;97992.75;;;13.77;100.00
4398;BME280;2213;49.720;7.296;2023-05-12T09:16:23;97986.28;;;13.73;100.00
4398;BME280;2213;49.720;7.296;2023-05-12T09:18:54;97989.09;;;13.78;100.00
4398;BME280;2213;49.720;7.296;2023-05-12T09:21:24;97988.31;;;13.78;100.00
4398;BME280;2213;49.720;7.296;2023-05-12T09:23:57;97989.88;;;13.79;100.00
4398;BME280;2213;49.720;7.296;2023-05-12T09:26:28;97993.56;;;13.78;100.00
4398;BME280;2213;49.720;7.296;2023-05-12T09:29:05;97988.31;;;13.78;100.00
4398;BME280;2213;49.720;7.296;2023-05-12T09:31:34;97991.50;;;13.80;100.00
4398;BME280;2213;49.720;7.296;2023-05-12T09:34:07;98001.59;;;13.83;100.00
4398;BME280;2213;49.720;7.296;2023-05-12T09:36:35;97995.94;;;13.86;100.00
4398;BME280;2213;49.720;7.296;2023-05-12T09:39:08;97995.50;;;13.89;100.00
4398;BME280;2213;49.720;7.296;2023-05-12T09:41:40;97991.06;;;13.89;100.00
4398;BME280;2213;49.720;7.296;2023-05-12T09:44:09;97987.81;;;13.94;100.00
4398;BME280;2213;49.720;7.296;2023-05-12T09:46:42;97983.38;;;13.94;100.00
4398;BME280;2213;49.720;7.296;2023-05-12T09:49:11;97986.81;;;13.95;100.00
4398;BME280;2213;49.720;7.296;2023-05-12T09:51:42;97984.19;;;13.95;100.00
4398;BME280;2213;49.720;7.296;2023-05-12T09:54:11;97987.19;;;13.98;100.00
4398;BME280;2213;49.720;7.296;2023-05-12T09:56:41;97991.66;;;13.98;100.00
4398;BME280;2213;49.720;7.296;2023-05-12T09:59:11;97986.59;;;13.96;100.00
4398;BME280;2213;49.720;7.296;2023-05-12T10:01:40;97994.69;;;13.95;100.00
4398;BME280;2213;49.720;7.296;2023-05-12T10:04:10;97987.81;;;13.94;100.00
4398;BME280;2213;49.720;7.296;2023-05-12T10:06:41;97991.03;;;13.96;100.00
4398;BME280;2213;49.720;7.296;2023-05-12T10:09:17;97996.13;;;13.91;100.00
4398;BME280;2213;49.720;7.296;2023-05-12T10:11:49;97992.06;;;13.95;100.00
4398;BME280;2213;49.720;7.296;2023-05-12T10:14:21;97995.28;;;13.97;100.00
4398;BME280;2213;49.720;7.296;2023-05-12T10:16:51;98001.34;;;13.97;100.00
4398;BME280;2213;49.720;7.296;2023-05-12T10:19:24;98004.56;;;13.99;100.00
4398;BME280;2213;49.720;7.296;2023-05-12T10:21:56;97991.81;;;14.03;100.00
4398;BME280;2213;49.720;7.296;2023-05-12T10:24:26;97996.06;;;14.04;100.00
4398;BME280;2213;49.720;7.296;2023-05-12T10:26:56;97993.63;;;14.09;100.00
4398;BME280;2213;49.720;7.296;2023-05-12T10:29:26;97989.75;;;14.11;100.00
4398;BME280;2213;49.720;7.296;2023-05-12T10:31:58;97988.09;;;14.17;100.00
4398;BME280;2213;49.720;7.296;2023-05-12T10:34:31;97989.47;;;14.26;100.00
4398;BME280;2213;49.720;7.296;2023-05-12T10:37:00;97991.25;;;14.32;100.00
4398;BME280;2213;49.720;7.296;2023-05-12T10:39:35;97984.16;;;14.39;100.00
4398;BME280;2213;49.720;7.296;2023-05-12T10:42:08;97989.13;;;14.47;100.00
4398;BME280;2213;49.720;7.296;2023-05-12T10:44:49;97990.94;;;14.53;100.00
4398;BME280;2213;49.720;7.296;2023-05-12T10:47:20;97987.06;;;14.56;100.00
4398;BME280;2213;49.720;7.296;2023-05-12T10:49:55;97985.41;;;14.61;100.00
4398;BME280;2213;49.720;7.296;2023-05-12T10:52:25;97985.78;;;14.65;100.00
4398;BME280;2213;49.720;7.296;2023-05-12T10:55:00;97983.31;;;14.70;100.00
4398;BME280;2213;49.720;7.296;2023-05-12T10:57:31;97990.16;;;14.78;100.00
4398;BME280;2213;49.720;7.296;2023-05-12T11:00:00;97985.63;;;14.85;100.00
4398;BME280;2213;49.720;7.296;2023-05-12T11:02:31;97982.78;;;14.86;100.00
4398;BME280;2213;49.720;7.296;2023-05-12T11:05:10;97977.44;;;14.93;100.00
4398;BME280;2213;49.720;7.296;2023-05-12T11:07:46;97986.97;;;14.94;100.00
4398;BME280;2213;49.720;7.296;2023-05-12T11:10:16;97982.31;;;14.96;100.00
4398;BME280;2213;49.720;7.296;2023-05-12T11:12:51;97985.56;;;14.91;100.00
4398;BME280;2213;49.720;7.296;2023-05-12T11:15:20;97991.66;;;14.92;100.00
4398;BME280;2213;49.720;7.296;2023-05-12T11:17:49;97985.94;;;14.95;100.00
4398;BME280;2213;49.720;7.296;2023-05-12T11:20:22;97986.53;;;14.97;100.00
4398;BME280;2213;49.720;7.296;2023-05-12T11:22:51;97994.59;;;15.02;100.00
4398;BME280;2213;49.720;7.296;2023-05-12T11:25:20;97996.19;;;15.03;100.00
4398;BME280;2213;49.720;7.296;2023-05-12T11:27:51;97988.53;;;15.01;100.00
4398;BME280;2213;49.720;7.296;2023-05-12T11:30:21;97993.56;;;15.03;100.00
4398;BME280;2213;49.720;7.296;2023-05-12T11:32:59;97992.72;;;15.09;100.00
4398;BME280;2213;49.720;7.296;2023-05-12T11:35:30;97996.53;;;15.13;100.00
4398;BME280;2213;49.720;7.296;2023-05-12T11:37:58;97998.72;;;15.16;100.00
4398;BME280;2213;49.720;7.296;2023-05-12T11:40:29;97997.41;;;15.25;100.00
4398;BME280;2213;49.720;7.296;2023-05-12T11:43:09;97989.22;;;15.33;100.00
4398;BME280;2213;49.720;7.296;2023-05-12T11:45:38;97992.59;;;15.40;100.00
4398;BME280;2213;49.720;7.296;2023-05-12T11:48:08;97995.16;;;15.47;100.00
4398;BME280;2213;49.720;7.296;2023-05-12T11:50:40;97985.59;;;15.52;100.00
4398;BME280;2213;49.720;7.296;2023-05-12T11:53:10;97989.41;;;15.56;100.00
4398;BME280;2213;49.720;7.296;2023-05-12T11:55:47;97990.94;;;15.64;100.00
4398;BME280;2213;49.720;7.296;2023-05-12T11:58:23;97990.94;;;15.64;100.00
4398;BME280;2213;49.720;7.296;2023-05-12T12:00:53;97984.13;;;15.75;100.00
4398;BME280;2213;49.720;7.296;2023-05-12T12:03:24;97990.72;;;15.84;100.00
4398;BME280;2213;49.720;7.296;2023-05-12T12:06:00;97987.41;;;15.88;100.00
4398;BME280;2213;49.720;7.296;2023-05-12T12:08:29;98004.41;;;15.92;100.00
4398;BME280;2213;49.720;7.296;2023-05-12T12:10:58;97993.97;;;15.97;100.00
4398;BME280;2213;49.720;7.296;2023-05-12T12:13:31;97990.13;;;16.00;100.00
4398;BME280;2213;49.720;7.296;2023-05-12T12:15:59;97985.25;;;15.97;100.00
4398;BME280;2213;49.720;7.296;2023-05-12T12:18:28;97995.41;;;16.00;100.00
4398;BME280;2213;49.720;7.296;2023-05-12T12:20:56;97997.44;;;15.98;100.00
4398;BME280;2213;49.720;7.296;2023-05-12T12:23:25;98002.06;;;16.02;100.00
4398;BME280;2213;49.720;7.296;2023-05-12T12:25:54;98003.44;;;16.05;100.00
4398;BME280;2213;49.720;7.296;2023-05-12T12:28:22;98007.00;;;16.10;100.00
4398;BME280;2213;49.720;7.296;2023-05-12T12:30:52;98017.63;;;16.04;100.00
4398;BME280;2213;49.720;7.296;2023-05-12T12:33:21;98015.59;;;16.06;100.00
4398;BME280;2213;49.720;7.296;2023-05-12T12:35:50;98011.78;;;16.02;100.00
4398;BME280;2213;49.720;7.296;2023-05-12T12:38:19;98015.91;;;15.98;100.00
4398;BME280;2213;49.720;7.296;2023-05-12T12:40:48;98015.31;;;15.96;100.00
4398;BME280;2213;49.720;7.296;2023-05-12T12:43:17;98014.16;;;15.92;100.00
4398;BME280;2213;49.720;7.296;2023-05-12T12:45:46;98025.72;;;15.91;100.00
4398;BME280;2213;49.720;7.296;2023-05-12T12:48:16;98028.88;;;15.81;100.00
4398;BME280;2213;49.720;7.296;2023-05-12T12:50:45;98028.97;;;15.75;100.00
4398;BME280;2213;49.720;7.296;2023-05-12T12:53:14;98029.84;;;15.69;100.00
4398;BME280;2213;49.720;7.296;2023-05-12T12:55:42;98037.97;;;15.67;100.00
4398;BME280;2213;49.720;7.296;2023-05-12T12:58:11;98036.22;;;15.61;100.00
4398;BME280;2213;49.720;7.296;2023-05-12T13:00:40;98040.50;;;15.55;100.00
4398;BME280;2213;49.720;7.296;2023-05-12T13:03:09;98039.34;;;15.51;100.00
4398;BME280;2213;49.720;7.296;2023-05-12T13:05:39;98048.69;;;15.47;100.00
4398;BME280;2213;49.720;7.296;2023-05-12T13:08:08;98056.22;;;15.44;100.00
4398;BME280;2213;49.720;7.296;2023-05-12T13:10:36;98055.84;;;15.40;100.00
4398;BME280;2213;49.720;7.296;2023-05-12T13:13:08;98059.34;;;15.34;100.00
4398;BME280;2213;49.720;7.296;2023-05-12T13:15:39;98070.75;;;15.28;100.00
4398;BME280;2213;49.720;7.296;2023-05-12T13:18:08;98073.66;;;15.20;100.00
4398;BME280;2213;49.720;7.296;2023-05-12T13:20:40;98078.56;;;15.17;100.00
4398;BME280;2213;49.720;7.296;2023-05-12T13:23:09;98081.22;;;15.10;100.00
4398;BME280;2213;49.720;7.296;2023-05-12T13:25:37;98079.03;;;15.07;100.00